Time;durP1;ratioP1;P1;durP2;ratioP2;P2;SDS_P1;SDS_P2;PMS_P1;PMS_P2;Temp;Humidity;BMP_temperature;BMP_pressure;BME280_temperature;BME280_humidity;BME280_pressure;Samples;Min_cycle;Max_cycle;Signal;HPM_P1;HPM_P2
2022/04/19 00:02:19;;;;;;;4.65;3.35;;;;;;;7.84;81.89;100391.03;8386298;28;20036;-64
2022/04/19 00:06:20;;;;;;;4.38;3.03;;;;;;;7.14;86.54;100394.19;8387775;28;20386;-64
2022/04/19 00:10:20;;;;;;;6.47;4.13;;;;;;;6.67;89.73;100395.22;8387682;28;20049;-64
2022/04/19 00:14:21;;;;;;;6.68;3.85;;;;;;;6.83;89.42;100387.69;8383498;28;20417;-63
2022/04/19 00:18:21;;;;;;;4.70;3.55;;;;;;;7.38;87.28;100382.31;8385990;28;20040;-63
2022/04/19 00:22:22;;;;;;;6.18;3.85;;;;;;;7.10;88.09;100382.81;8386036;28;20455;-64
2022/04/19 00:26:22;;;;;;;6.20;4.10;;;;;;;7.01;89.33;100383.53;8386012;28;20071;-64
2022/04/19 00:30:23;;;;;;;9.18;4.28;;;;;;;6.45;92.76;100381.75;8386601;28;20036;-64
2022/04/19 00:34:23;;;;;;;8.02;4.50;;;;;;;6.66;92.51;100376.53;8391698;28;20059;-64
2022/04/19 00:38:23;;;;;;;7.47;4.22;;;;;;;6.80;92.22;100374.47;8379625;28;20102;-65
2022/04/19 00:42:28;;;;;;;10.48;4.97;;;;;;;6.94;91.58;100376.94;8387332;28;20511;-64
2022/04/19 00:46:29;;;;;;;6.13;4.10;;;;;;;6.93;91.14;100375.25;8390792;28;20556;-64
2022/04/19 00:50:31;;;;;;;6.28;3.88;;;;;;;6.91;90.19;100370.97;8393382;28;20439;-63
2022/04/19 00:54:32;;;;;;;5.93;3.95;;;;;;;6.65;92.24;100374.84;8392675;28;20033;-64
2022/04/19 00:58:33;;;;;;;6.32;4.45;;;;;;;6.81;92.28;100378.91;8392201;28;20037;-64
2022/04/19 01:02:35;;;;;;;8.93;4.50;;;;;;;7.01;90.32;100367.41;8391850;28;20117;-64
2022/04/19 01:06:35;;;;;;;6.82;4.90;;;;;;;7.09;89.31;100365.00;8391086;28;20068;-65
2022/04/19 01:10:36;;;;;;;7.03;4.43;;;;;;;7.03;89.38;100360.09;8392640;28;20086;-64
2022/04/19 01:14:36;;;;;;;7.32;4.70;;;;;;;7.09;89.05;100359.63;8391631;28;20035;-64
2022/04/19 01:18:37;;;;;;;6.93;5.07;;;;;;;7.03;89.02;100360.09;8379821;28;20401;-64
2022/04/19 01:22:39;;;;;;;6.43;4.95;;;;;;;6.90;90.12;100354.00;8373285;28;20531;-64
2022/04/19 01:26:39;;;;;;;7.10;4.80;;;;;;;6.95;90.43;100338.34;8381296;28;20045;-64
2022/04/19 01:30:43;;;;;;;6.60;4.82;;;;;;;6.88;90.88;100349.69;8378833;28;20125;-64
2022/04/19 01:34:43;;;;;;;8.63;4.80;;;;;;;6.75;91.68;100355.19;8393356;28;20119;-64
2022/04/19 01:38:43;;;;;;;6.83;4.40;;;;;;;6.66;91.77;100349.69;8395601;28;20072;-64
2022/04/19 01:43:01;;;;;;;10.65;4.80;;;;;;;6.74;90.89;100347.25;8390924;28;20354;-64
2022/04/19 01:47:04;;;;;;;7.47;4.75;;;;;;;6.58;91.43;100352.97;8391267;28;20089;-64
2022/04/19 01:51:05;;;;;;;7.30;5.13;;;;;;;6.61;91.49;100347.34;8390282;28;20036;-64
2022/04/19 01:55:07;;;;;;;9.65;4.65;;;;;;;5.93;95.13;100351.81;8390705;28;20083;-64
2022/04/19 01:59:08;;;;;;;6.40;5.45;;;;;;;6.17;94.21;100346.41;8390527;28;20108;-64
2022/04/19 02:03:09;;;;;;;7.03;4.80;;;;;;;6.01;94.28;100347.56;8390389;28;20041;-64
2022/04/19 02:07:09;;;;;;;7.95;4.85;;;;;;;5.71;94.65;100339.09;8382881;28;20119;-64
2022/04/19 02:11:09;;;;;;;7.35;4.80;;;;;;;5.74;95.61;100341.53;8390881;28;20063;-64
2022/04/19 02:15:11;;;;;;;10.40;5.50;;;;;;;5.49;96.56;100338.97;8387055;28;20040;-64
2022/04/19 02:19:11;;;;;;;6.38;5.25;;;;;;;5.39;96.86;100342.44;8383280;28;20483;-64
2022/04/19 02:23:13;;;;;;;9.13;5.83;;;;;;;5.64;98.44;100342.34;8386531;28;20048;-64
2022/04/19 02:27:14;;;;;;;10.30;5.38;;;;;;;5.26;99.68;100336.28;8386353;28;20328;-64
2022/04/19 02:31:14;;;;;;;9.45;5.53;;;;;;;5.21;100.00;100341.09;8386251;28;20113;-64
2022/04/19 02:35:18;;;;;;;8.63;5.57;;;;;;;5.26;100.00;100342.50;8386166;28;20063;-64
2022/04/19 02:39:20;;;;;;;8.27;5.45;;;;;;;5.28;100.00;100337.03;8384882;28;20033;-64
2022/04/19 02:43:20;;;;;;;8.15;5.57;;;;;;;5.23;100.00;100339.19;8383628;28;20040;-64
2022/04/19 02:47:20;;;;;;;6.93;4.70;;;;;;;5.34;99.19;100333.91;8384630;28;20127;-64
2022/04/19 02:51:21;;;;;;;5.72;5.03;;;;;;;5.40;98.16;100328.94;8386168;28;20090;-64
2022/04/19 02:55:21;;;;;;;5.40;4.55;;;;;;;5.45;97.27;100336.63;8377689;28;20685;-64
2022/04/19 02:59:22;;;;;;;7.95;4.47;;;;;;;5.44;96.79;100324.22;8384529;28;20500;-64
2022/04/19 03:03:22;;;;;;;8.45;5.18;;;;;;;5.41;96.82;100319.06;8378731;28;20487;-64
2022/04/19 03:07:23;;;;;;;5.28;4.32;;;;;;;5.27;97.24;100321.91;8370676;28;20045;-64
2022/04/19 03:11:23;;;;;;;6.65;4.90;;;;;;;5.19;97.25;100318.94;8386017;28;20520;-64
2022/04/19 03:15:23;;;;;;;6.93;4.55;;;;;;;5.03;97.44;100319.19;8383501;28;20119;-64
2022/04/19 03:19:24;;;;;;;6.60;4.82;;;;;;;5.10;97.11;100317.78;8384399;28;20048;-64
2022/04/19 03:27:45;;;;;;;6.45;4.45;;;;;;;4.98;96.81;100317.81;8385127;28;20055;-64
2022/04/19 03:31:46;;;;;;;10.18;5.53;;;;;;;4.94;98.27;100308.28;8385583;28;20559;-64
2022/04/19 03:35:46;;;;;;;8.85;4.88;;;;;;;4.73;97.93;100310.66;8364646;28;20028;-64
2022/04/19 03:39:46;;;;;;;8.98;5.18;;;;;;;4.68;99.94;100318.19;8385363;28;20037;-64
2022/04/19 03:43:47;;;;;;;9.57;5.63;;;;;;;4.29;100.00;100320.97;8384300;28;20044;-64
2022/04/19 03:47:48;;;;;;;6.75;4.93;;;;;;;4.37;100.00;100312.41;8378634;28;20278;-64
2022/04/19 03:51:49;;;;;;;9.73;4.97;;;;;;;4.52;100.00;100319.38;8382992;28;20378;-64
2022/04/19 03:55:49;;;;;;;7.75;5.38;;;;;;;4.43;100.00;100322.69;8380176;28;20036;-64
2022/04/19 03:59:50;;;;;;;5.15;4.65;;;;;;;4.16;100.00;100321.91;8349614;28;20382;-64
2022/04/19 04:03:51;;;;;;;6.53;4.97;;;;;;;4.10;100.00;100323.19;8380656;28;20048;-64
2022/04/19 04:07:52;;;;;;;9.02;5.05;;;;;;;4.07;100.00;100329.63;8389666;28;20033;-64
2022/04/19 04:11:52;;;;;;;7.20;5.47;;;;;;;4.28;100.00;100332.63;8389908;28;20481;-64
2022/04/19 04:15:53;;;;;;;9.32;5.60;;;;;;;4.44;99.92;100329.75;8385119;28;20036;-63
2022/04/19 04:19:53;;;;;;;8.30;5.45;;;;;;;4.22;100.00;100340.22;8384406;28;20440;-63
2022/04/19 04:23:54;;;;;;;15.40;5.90;;;;;;;4.37;100.00;100333.81;8380018;28;20445;-64
2022/04/19 04:27:54;;;;;;;9.93;5.25;;;;;;;4.34;100.00;100331.34;8387862;28;20396;-63
2022/04/19 04:31:54;;;;;;;9.18;4.93;;;;;;;4.34;100.00;100336.69;8377523;28;20056;-63
2022/04/19 04:35:55;;;;;;;8.45;5.25;;;;;;;3.81;100.00;100346.53;8372425;28;20124;-63
2022/04/19 04:39:55;;;;;;;9.63;5.80;;;;;;;4.09;100.00;100334.88;8384722;28;20132;-64
2022/04/19 04:43:55;;;;;;;7.90;5.63;;;;;;;4.03;100.00;100333.44;8379151;28;20044;-63
2022/04/19 04:52:16;;;;;;;11.10;5.63;;;;;;;4.24;100.00;100338.31;8375007;28;20552;-65
2022/04/19 04:56:17;;;;;;;9.52;5.30;;;;;;;4.51;100.00;100337.22;8387945;28;20400;-65
2022/04/19 05:00:17;;;;;;;9.52;5.53;;;;;;;4.65;100.00;100338.94;8386830;28;20040;-64
2022/04/19 05:04:17;;;;;;;11.52;5.43;;;;;;;4.70;99.98;100337.66;8377651;28;20449;-64
2022/04/19 05:08:18;;;;;;;8.95;5.15;;;;;;;4.94;99.68;100340.44;8387375;28;20404;-64
2022/04/19 05:12:18;;;;;;;10.02;5.15;;;;;;;5.14;100.00;100334.50;8387806;28;20469;-64
2022/04/19 05:16:19;;;;;;;9.93;5.38;;;;;;;5.60;98.28;100344.41;8348308;28;20037;-64
2022/04/19 05:20:19;;;;;;;9.43;4.53;;;;;;;6.01;95.47;100346.72;8378322;28;20473;-64
2022/04/19 05:24:20;;;;;;;7.75;4.97;;;;;;;5.87;95.51;100344.22;8370035;28;20059;-63
2022/04/19 05:28:20;;;;;;;12.32;5.30;;;;;;;6.18;97.27;100345.41;8360894;28;20090;-64
2022/04/19 05:32:21;;;;;;;11.18;4.72;;;;;;;6.27;94.84;100342.91;8374558;28;20413;-66
2022/04/19 05:36:22;;;;;;;10.07;4.88;;;;;;;6.66;92.76;100341.63;8377381;28;20135;-64
2022/04/19 05:40:23;;;;;;;10.18;5.07;;;;;;;6.72;92.30;100344.69;8341525;28;20048;-65
2022/04/19 05:44:23;;;;;;;9.32;4.40;;;;;;;7.29;89.19;100344.56;8348626;28;20053;-65
2022/04/19 05:48:25;;;;;;;6.82;4.47;;;;;;;7.37;89.78;100348.34;8349415;28;20506;-65
2022/04/19 05:52:25;;;;;;;13.63;4.70;;;;;;;7.82;86.87;100358.03;8345628;28;20415;-65
2022/04/19 05:56:26;;;;;;;11.27;4.25;;;;;;;8.01;86.27;100360.88;8346130;28;20219;-65
2022/04/19 06:00:26;;;;;;;8.30;4.30;;;;;;;8.18;87.13;100350.53;8353150;28;20045;-65
2022/04/19 06:04:59;;;;;;;7.88;4.57;;;;;;;8.04;86.60;100355.25;8348954;28;20495;-65
2022/04/19 06:08:47;;;;;;;9.45;4.82;;;;;;;8.48;87.09;100353.34;8349563;28;20508;-65
2022/04/19 06:12:47;;;;;;;8.48;4.45;;;;;;;8.66;84.86;100362.56;8345233;28;20059;-64
2022/04/19 06:16:48;;;;;;;10.85;4.47;;;;;;;8.83;82.89;100353.84;8347389;28;20033;-64
2022/04/19 06:20:53;;;;;;;14.80;5.05;;;;;;;9.03;83.81;100361.06;8345012;28;20037;-64
2022/04/19 06:24:57;;;;;;;11.80;4.68;;;;;;;9.09;81.03;100365.91;8348274;28;20402;-64
2022/04/19 06:28:57;;;;;;;7.25;4.78;;;;;;;9.55;80.68;100363.53;8332150;28;20576;-66
2022/04/19 06:32:58;;;;;;;18.53;5.87;;;;;;;9.78;80.40;100363.16;8344377;28;20452;-64
2022/04/19 06:36:58;;;;;;;13.00;4.85;;;;;;;9.97;80.90;100365.88;8342337;28;20290;-64
2022/04/19 06:40:59;;;;;;;12.40;5.20;;;;;;;10.66;76.37;100363.91;8345692;28;20051;-64
2022/04/19 06:45:00;;;;;;;8.45;4.57;;;;;;;10.65;76.21;100356.78;8349153;28;20185;-64
2022/04/19 06:49:00;;;;;;;16.38;4.78;;;;;;;10.72;74.22;100368.72;8361393;28;20064;-64
2022/04/19 06:53:00;;;;;;;8.93;4.63;;;;;;;11.08;76.97;100359.81;8347066;28;20159;-64
2022/04/19 06:57:01;;;;;;;6.57;4.93;;;;;;;11.18;74.91;100359.75;8341129;28;20660;-64
2022/04/19 07:01:01;;;;;;;8.90;4.80;;;;;;;11.21;74.57;100364.88;8346571;28;20183;-64
2022/04/19 07:05:02;;;;;;;13.55;5.35;;;;;;;11.63;76.35;100372.41;8338588;28;20136;-65
2022/04/19 07:09:03;;;;;;;13.70;5.65;;;;;;;11.77;74.94;100374.59;8340516;28;20075;-65
2022/04/19 07:13:03;;;;;;;14.18;6.40;;;;;;;12.37;72.69;100372.16;8344326;28;20158;-65
2022/04/19 07:17:04;;;;;;;11.65;6.40;;;;;;;12.54;69.35;100358.63;8339308;28;20137;-65
2022/04/19 07:26:40;;;;;;;20.30;6.90;;;;;;;12.68;67.00;100359.88;8341950;28;20310;-65
2022/04/19 07:29:45;;;;;;;16.58;4.95;;;;;;;12.80;64.47;100367.63;8340487;28;21097;-65
2022/04/19 07:33:46;;;;;;;9.43;4.88;;;;;;;13.11;63.30;100357.16;8340931;28;20480;-65
2022/04/19 07:37:46;;;;;;;6.07;3.92;;;;;;;13.19;63.74;100357.22;8333400;28;20307;-65
2022/04/19 07:41:47;;;;;;;16.17;4.85;;;;;;;13.37;61.20;100363.44;8344314;28;20651;-65
2022/04/19 07:45:47;;;;;;;10.13;4.25;;;;;;;13.64;61.81;100358.63;8323112;28;20564;-65
2022/04/19 07:49:49;;;;;;;8.85;3.60;;;;;;;13.86;60.46;100362.59;8340638;28;20048;-65
2022/04/19 07:53:50;;;;;;;6.57;3.83;;;;;;;14.09;59.25;100355.50;8327526;28;20694;-65
2022/04/19 07:57:51;;;;;;;7.13;4.13;;;;;;;14.11;60.00;100361.66;8348144;28;20040;-65
2022/04/19 08:01:51;;;;;;;8.82;3.95;;;;;;;14.48;60.16;100361.19;8349707;28;20474;-65
2022/04/19 08:05:53;;;;;;;9.85;4.60;;;;;;;14.82;59.97;100356.47;8346232;28;20045;-65
2022/04/19 08:09:53;;;;;;;7.95;3.95;;;;;;;14.72;58.63;100359.34;8326316;28;20067;-65
2022/04/19 08:13:53;;;;;;;11.60;4.22;;;;;;;15.21;57.79;100355.53;8345614;28;20040;-64
2022/04/19 08:17:55;;;;;;;12.82;5.70;;;;;;;15.31;59.19;100358.06;8351181;28;20551;-65
2022/04/19 08:21:57;;;;;;;11.55;4.57;;;;;;;15.52;57.32;100352.91;8330199;28;20476;-65
2022/04/19 08:25:57;;;;;;;12.88;4.95;;;;;;;15.95;56.03;100343.34;8332546;28;20634;-65
2022/04/19 08:29:58;;;;;;;10.60;4.38;;;;;;;15.95;56.41;100343.34;8350398;28;20044;-64
2022/04/19 08:33:58;;;;;;;8.38;4.32;;;;;;;16.08;54.83;100343.59;8348898;28;20099;-65
2022/04/19 08:37:59;;;;;;;8.98;4.43;;;;;;;16.44;56.46;100342.00;8344259;28;20036;-65
2022/04/19 08:41:59;;;;;;;10.07;5.07;;;;;;;16.88;56.31;100349.31;8351612;28;20044;-65
2022/04/19 08:46:01;;;;;;;11.32;5.00;;;;;;;17.01;57.58;100340.47;8370749;28;20047;-65
2022/04/19 08:50:07;;;;;;;11.48;4.57;;;;;;;17.31;55.44;100339.44;8373362;28;20560;-66
2022/04/19 08:58:29;;;;;;;12.05;4.45;;;;;;;17.32;55.94;100335.69;8374869;28;20040;-65
2022/04/19 09:02:32;;;;;;;6.65;4.68;;;;;;;17.71;53.06;100340.91;8373679;28;20267;-65
2022/04/19 09:06:54;;;;;;;8.60;4.57;;;;;;;17.68;53.67;100339.38;8374934;28;20040;-63
2022/04/19 09:11:05;;;;;;;8.57;4.45;;;;;;;17.05;51.40;100334.44;8375700;28;20044;-65
2022/04/19 09:15:06;;;;;;;12.32;4.57;;;;;;;17.20;52.56;100327.09;8355111;28;20056;-66
2022/04/19 09:19:08;;;;;;;10.70;4.70;;;;;;;17.50;51.86;100322.50;8368993;28;20067;-65
2022/04/19 09:23:11;;;;;;;13.30;4.70;;;;;;;18.27;51.95;100319.03;8374521;28;21052;-65
2022/04/19 09:27:11;;;;;;;7.78;5.00;;;;;;;17.91;51.11;100320.09;8373586;28;20051;-65
2022/04/19 09:31:12;;;;;;;7.23;4.37;;;;;;;18.25;49.53;100318.41;8349822;28;20068;-66
2022/04/19 09:35:12;;;;;;;11.23;5.07;;;;;;;18.29;49.32;100319.69;8348395;28;20369;-66
2022/04/19 09:39:28;;;;;;;9.00;5.47;;;;;;;19.58;47.43;100318.25;8375225;28;20032;-66
2022/04/19 09:43:28;;;;;;;8.00;4.85;;;;;;;21.18;46.74;100310.75;8359418;28;20072;-65
2022/04/19 09:47:29;;;;;;;10.68;5.13;;;;;;;21.44;42.69;100301.63;8363214;28;20032;-65
2022/04/19 09:51:32;;;;;;;13.35;5.45;;;;;;;23.19;41.88;100311.59;8360836;28;20047;-65
2022/04/19 09:55:33;;;;;;;8.35;5.93;;;;;;;23.54;40.88;100300.81;8357551;28;20041;-65
2022/04/19 09:59:42;;;;;;;11.45;5.70;;;;;;;23.89;38.71;100303.81;8358283;28;20744;-65
2022/04/19 10:08:28;;;;;;;14.32;6.07;;;;;;;24.52;39.26;100296.78;8366511;28;20720;-65
2022/04/19 10:12:25;;;;;;;9.32;5.55;;;;;;;24.14;38.44;100287.97;8349743;28;20044;-65
2022/04/19 10:16:29;;;;;;;8.60;4.55;;;;;;;23.83;39.22;100280.72;8360442;28;20105;-65
2022/04/19 10:20:32;;;;;;;9.60;6.10;;;;;;;23.29;40.54;100291.78;8361644;28;20045;-65
2022/04/19 10:24:44;;;;;;;9.00;5.43;;;;;;;23.58;39.49;100284.66;8344542;28;21054;-65
2022/04/19 10:28:50;;;;;;;8.57;5.55;;;;;;;24.18;40.06;100272.66;8349772;28;20044;-65
2022/04/19 10:32:50;;;;;;;10.77;6.05;;;;;;;24.20;38.44;100276.00;8367748;28;20048;-65
2022/04/19 10:36:54;;;;;;;9.33;5.67;;;;;;;24.05;38.90;100275.56;8343626;28;20101;-65
2022/04/19 10:40:55;;;;;;;13.07;7.10;;;;;;;24.14;38.10;100268.66;8365843;28;20279;-65
2022/04/19 10:44:56;;;;;;;14.77;7.82;;;;;;;24.64;37.17;100273.63;8347903;28;20047;-65
2022/04/19 10:49:24;;;;;;;10.55;6.60;;;;;;;24.88;38.25;100257.91;8362999;28;20082;-65
2022/04/19 10:53:32;;;;;;;11.23;6.97;;;;;;;23.74;37.81;100270.22;8359064;28;20037;-65
2022/04/19 10:58:21;;;;;;;11.65;7.05;;;;;;;24.96;37.10;100268.63;8350224;28;20132;-66
2022/04/19 11:02:35;;;;;;;12.43;6.45;;;;;;;23.81;37.29;100260.78;8343403;28;20041;-66
2022/04/19 11:06:38;;;;;;;12.10;5.57;;;;;;;24.54;40.06;100255.91;8351303;28;20047;-63
2022/04/19 11:10:39;;;;;;;9.65;5.60;;;;;;;24.85;38.30;100247.31;8362787;28;20230;-63
2022/04/19 11:14:41;;;;;;;9.68;5.70;;;;;;;25.26;37.94;100244.44;8365935;28;20129;-64
2022/04/19 11:22:53;;;;;;;11.25;6.18;;;;;;;24.08;38.95;100250.25;8407805;27;20378;-66
2022/04/19 11:26:53;;;;;;;11.43;6.93;;;;;;;23.93;38.24;100241.50;8384730;27;20044;-66
2022/04/19 11:35:06;;;;;;;8.63;5.85;;;;;;;25.71;35.17;100245.44;8374951;27;20360;-65
2022/04/19 11:39:07;;;;;;;9.95;6.28;;;;;;;24.76;37.47;100234.94;8380250;28;20580;-65
2022/04/19 11:46:43;;;;;;;8.57;5.97;;;;;;;24.92;35.59;100232.28;8360645;28;20167;-65
2022/04/19 11:47:43;;;;;;;9.75;6.15;;;;;;;26.19;35.98;100228.41;8376741;28;20181;-65
2022/04/19 11:51:46;;;;;;;10.10;6.63;;;;;;;25.62;38.55;100219.25;8392900;28;20051;-65
2022/04/19 11:55:51;;;;;;;11.13;7.22;;;;;;;23.25;37.82;100220.72;8359190;28;20037;-65
2022/04/19 11:59:53;;;;;;;8.50;6.13;;;;;;;22.29;39.17;100220.28;8369796;28;20056;-65
2022/04/19 12:03:54;;;;;;;14.05;8.23;;;;;;;22.17;40.35;100221.25;8354218;28;20547;-64
2022/04/19 12:07:55;;;;;;;10.77;6.70;;;;;;;21.79;40.71;100218.53;8378122;28;20241;-66
2022/04/19 12:11:56;;;;;;;21.95;7.22;;;;;;;22.21;42.85;100214.22;8377817;28;20036;-65
2022/04/19 12:15:57;;;;;;;11.98;8.50;;;;;;;20.91;40.37;100212.84;8377916;28;20222;-65
2022/04/19 12:20:03;;;;;;;9.95;6.57;;;;;;;21.15;42.85;100203.94;8373738;28;20214;-64
2022/04/19 12:24:19;;;;;;;10.48;6.68;;;;;;;21.12;40.60;100204.38;8374413;28;20140;-65
2022/04/19 12:28:20;;;;;;;9.75;6.65;;;;;;;20.63;40.47;100195.78;8369512;28;20472;-65
2022/04/19 12:32:20;;;;;;;10.13;5.25;;;;;;;20.94;41.94;100198.69;8368421;28;20055;-64
2022/04/19 12:36:25;;;;;;;9.90;5.40;;;;;;;21.73;40.77;100191.84;8364263;28;20059;-64
2022/04/19 12:40:26;;;;;;;12.93;6.50;;;;;;;20.69;40.02;100181.19;8374349;28;20087;-64
2022/04/19 12:44:27;;;;;;;7.32;5.47;;;;;;;20.74;40.87;100178.66;8359753;28;20104;-64
2022/04/19 12:48:27;;;;;;;10.87;4.80;;;;;;;20.81;43.42;100179.47;8333594;28;20148;-64
2022/04/19 12:52:31;;;;;;;9.27;5.10;;;;;;;20.44;41.51;100171.94;8350135;28;20296;-64
2022/04/19 12:56:33;;;;;;;;;;;;;;;20.38;40.42;100161.78;8349942;28;20664;-64
2022/04/19 13:00:35;;;;;;;8.35;4.80;;;;;;;20.97;43.00;100152.41;8346650;28;19927;-64
2022/04/19 13:04:35;;;;;;;6.85;4.90;;;;;;;20.64;42.73;100157.09;8342077;28;20041;-64
2022/04/19 13:12:56;;;;;;;10.05;5.22;;;;;;;20.12;42.87;100145.28;8345038;28;20730;-64
2022/04/19 13:16:56;;;;;;;8.90;4.40;;;;;;;20.13;42.25;100142.34;8344144;28;20037;-64
2022/04/19 13:20:57;;;;;;;5.45;3.70;;;;;;;20.24;41.70;100149.97;8343186;28;20344;-64
2022/04/19 13:24:58;;;;;;;4.07;3.37;;;;;;;20.36;42.88;100142.78;8341876;28;20143;-64
2022/04/19 13:28:59;;;;;;;4.43;3.47;;;;;;;20.50;40.73;100141.72;8339860;28;20359;-64
2022/04/19 13:32:59;;;;;;;3.90;2.88;;;;;;;20.30;41.48;100126.31;8343478;28;20075;-63
2022/04/19 13:37:01;;;;;;;7.05;3.30;;;;;;;20.30;41.10;100131.78;8340489;28;20048;-64
2022/04/19 13:41:02;;;;;;;5.55;3.55;;;;;;;20.55;41.42;100130.06;8348146;28;20067;-64
2022/04/19 13:45:02;;;;;;;7.22;5.00;;;;;;;20.47;42.99;100127.56;8375453;28;20381;-64
2022/04/19 13:49:03;;;;;;;12.02;5.88;;;;;;;20.21;43.43;100122.09;8376949;28;20591;-64
2022/04/19 13:53:04;;;;;;;6.72;5.05;;;;;;;19.96;42.56;100113.63;8377120;28;20618;-64
2022/04/19 13:57:05;;;;;;;6.70;4.18;;;;;;;20.16;41.93;100113.66;8378216;28;20123;-63
2022/04/19 14:01:06;;;;;;;6.28;4.43;;;;;;;20.32;42.92;100118.72;8375190;28;20604;-64
2022/04/19 14:05:09;;;;;;;8.32;5.63;;;;;;;20.52;44.44;100119.53;8378547;28;20115;-64
2022/04/19 14:09:11;;;;;;;8.70;6.20;;;;;;;20.39;44.00;100122.28;8376458;28;20064;-64
2022/04/19 14:13:11;;;;;;;8.68;5.63;;;;;;;20.35;44.26;100118.28;8377598;28;20404;-64
2022/04/19 14:17:12;;;;;;;10.87;5.23;;;;;;;20.48;44.39;100129.25;8377839;28;20124;-64
2022/04/19 14:21:12;;;;;;;11.45;5.63;;;;;;;20.10;44.05;100119.97;8376867;28;20266;-64
2022/04/19 14:25:14;;;;;;;10.00;5.88;;;;;;;20.03;44.21;100128.19;8375075;28;20045;-64
2022/04/19 14:33:35;;;;;;;8.65;4.95;;;;;;;20.16;44.92;100124.63;8371575;28;20131;-64
2022/04/19 14:37:35;;;;;;;8.68;4.55;;;;;;;20.20;44.02;100120.41;8377688;28;20056;-64
2022/04/19 14:41:36;;;;;;;6.65;4.88;;;;;;;20.14;44.57;100126.75;8366579;28;20048;-64
2022/04/19 14:45:37;;;;;;;7.72;5.05;;;;;;;20.11;44.19;100122.50;8369091;28;20048;-64
2022/04/19 14:49:37;;;;;;;7.10;3.85;;;;;;;20.09;43.84;100107.28;8375043;28;20043;-64
2022/04/19 14:53:38;;;;;;;7.63;3.78;;;;;;;20.30;44.63;100109.84;8375834;28;20041;-64
2022/04/19 14:57:38;;;;;;;6.25;4.22;;;;;;;20.02;44.62;100125.66;8377660;28;20845;-64
2022/04/19 15:01:38;;;;;;;12.05;4.65;;;;;;;19.96;44.10;100107.28;8374826;28;20067;-64
2022/04/19 15:05:39;;;;;;;12.90;5.43;;;;;;;19.88;44.57;100104.75;8375538;28;20032;-64
2022/04/19 15:09:40;;;;;;;8.02;4.53;;;;;;;19.74;44.71;100103.06;8373412;28;20714;-64
2022/04/19 15:13:41;;;;;;;8.00;4.47;;;;;;;19.61;45.49;100108.53;8363362;28;20059;-63
2022/04/19 15:17:41;;;;;;;13.15;4.20;;;;;;;19.91;44.41;100116.16;8352578;28;20553;-63
2022/04/19 15:21:42;;;;;;;6.22;3.95;;;;;;;19.89;44.59;100117.41;8374503;28;20044;-64
2022/04/19 15:25:43;;;;;;;7.80;3.95;;;;;;;19.81;44.66;100109.38;8373229;28;20051;-64
2022/04/19 15:29:43;;;;;;;7.28;3.63;;;;;;;19.88;44.47;100104.75;8365262;28;20123;-64
2022/04/19 15:33:47;;;;;;;5.70;4.33;;;;;;;19.80;45.25;100105.81;8373882;28;20431;-64
2022/04/19 15:37:48;;;;;;;10.43;4.57;;;;;;;19.63;45.04;100100.91;8370712;28;20794;-63
2022/04/19 15:41:48;;;;;;;7.13;4.22;;;;;;;19.52;45.18;100110.63;8370789;28;20475;-64
2022/04/19 15:45:49;;;;;;;11.77;4.33;;;;;;;19.61;44.95;100103.88;8374537;28;20369;-64
2022/04/19 15:49:50;;;;;;;6.72;3.85;;;;;;;19.79;44.78;100106.03;8375264;28;20274;-64
2022/04/19 15:53:50;;;;;;;6.43;3.60;;;;;;;19.75;45.70;100110.22;8369413;28;20044;-64
2022/04/19 15:57:52;;;;;;;8.73;3.33;;;;;;;19.90;45.98;100108.13;8366330;28;20044;-64
2022/04/19 16:01:52;;;;;;;5.63;3.50;;;;;;;19.58;45.43;100098.84;8365771;28;20584;-64
2022/04/19 16:05:53;;;;;;;5.88;3.75;;;;;;;19.58;45.70;100111.69;8364976;28;20437;-64
2022/04/19 16:09:53;;;;;;;3.80;2.78;;;;;;;19.52;45.72;100094.19;8375897;28;20032;-64
2022/04/19 16:13:53;;;;;;;17.08;3.92;;;;;;;19.60;45.52;100095.88;8372965;28;20131;-64
2022/04/19 16:23:21;;;;;;;3.85;3.30;;;;;;;19.18;46.19;100103.31;8379562;28;20415;-64
2022/04/19 16:26:36;;;;;;;7.25;2.78;;;;;;;19.11;46.92;100096.97;8379009;28;20041;-64
2022/04/19 16:30:36;;;;;;;3.25;2.70;;;;;;;19.17;46.88;100101.66;8381793;28;20539;-64
2022/04/19 16:34:37;;;;;;;7.63;3.08;;;;;;;19.17;47.23;100107.13;8381116;28;20561;-64
2022/04/19 16:38:37;;;;;;;4.15;2.90;;;;;;;18.96;46.83;100104.50;8379555;28;20420;-64
2022/04/19 16:42:38;;;;;;;6.10;3.30;;;;;;;18.97;46.99;100100.72;8382906;28;20145;-64
2022/04/19 16:46:38;;;;;;;8.55;3.63;;;;;;;18.93;47.07;100102.19;8382539;28;20587;-64
2022/04/19 16:50:39;;;;;;;6.78;3.05;;;;;;;18.78;47.56;100117.06;8378263;28;20036;-64
2022/04/19 16:54:39;;;;;;;4.40;3.38;;;;;;;18.65;48.01;100106.88;8379671;28;20127;-64
2022/04/19 16:58:42;;;;;;;5.33;3.20;;;;;;;18.55;48.52;100105.56;8381144;28;20398;-64
2022/04/19 17:02:42;;;;;;;5.90;3.20;;;;;;;18.55;48.59;100109.16;8378194;28;20277;-64
2022/04/19 17:06:43;;;;;;;5.75;3.50;;;;;;;18.43;48.95;100116.25;8381213;28;20385;-64
2022/04/19 17:10:43;;;;;;;7.32;3.08;;;;;;;18.37;48.13;100118.91;8378586;28;20377;-64
2022/04/19 17:14:44;;;;;;;5.97;3.03;;;;;;;18.28;48.86;100115.47;8363860;28;20517;-64
2022/04/19 17:18:45;;;;;;;4.13;2.72;;;;;;;18.21;48.21;100122.75;8362894;28;20047;-64
2022/04/19 17:22:46;;;;;;;5.07;2.60;;;;;;;18.06;49.25;100121.19;8372262;28;20041;-64
2022/04/19 17:26:47;;;;;;;4.53;2.58;;;;;;;18.07;48.05;100129.19;8377984;28;20040;-64
2022/04/19 17:30:50;;;;;;;4.35;2.30;;;;;;;17.99;48.23;100129.31;8377670;28;20481;-64
2022/04/19 17:34:50;;;;;;;3.15;2.08;;;;;;;17.86;48.18;100134.69;8373166;28;20045;-64
2022/04/19 17:38:51;;;;;;;5.82;2.50;;;;;;;17.83;48.48;100137.81;8354035;28;20335;-64
2022/04/19 17:42:51;;;;;;;2.80;1.90;;;;;;;17.75;48.32;100146.13;8344936;28;20115;-64
2022/04/19 17:46:52;;;;;;;6.78;2.35;;;;;;;17.63;48.73;100141.41;8349330;28;21245;-64
2022/04/19 17:56:44;;;;;;;3.70;1.58;;;;;;;17.42;49.03;100147.69;8347344;28;20567;-64
2022/04/19 17:59:45;;;;;;;2.92;1.90;;;;;;;17.29;49.70;100156.56;8340607;28;20481;-64
2022/04/19 18:03:46;;;;;;;6.88;1.88;;;;;;;17.23;49.07;100159.22;8337442;28;20740;-64
2022/04/19 18:07:46;;;;;;;7.22;1.50;;;;;;;17.15;49.23;100171.13;8337481;28;20526;-64
2022/04/19 18:11:47;;;;;;;4.32;1.42;;;;;;;17.10;49.13;100172.69;8337263;28;20740;-64
2022/04/19 18:15:51;;;;;;;2.37;1.80;;;;;;;17.03;49.02;100178.09;8336238;28;20052;-64
2022/04/19 18:19:51;;;;;;;3.15;1.45;;;;;;;16.87;49.75;100183.75;8338613;28;20346;-64
2022/04/19 18:25:24;;;;;;;3.60;1.50;;;;;;;16.77;49.82;100182.34;8342827;28;20036;-64
2022/04/19 18:28:13;;;;;;;7.45;1.48;;;;;;;16.68;49.44;100184.31;8338344;28;20431;-64
2022/04/19 18:32:14;;;;;;;2.70;1.40;;;;;;;16.61;48.68;100188.84;8336992;28;20489;-64
2022/04/19 18:36:14;;;;;;;4.88;1.45;;;;;;;16.57;49.30;100203.03;8345694;28;20511;-64
2022/04/19 18:40:15;;;;;;;7.45;1.00;;;;;;;16.42;48.30;100204.88;8341713;28;20049;-64
2022/04/19 18:44:15;;;;;;;2.72;1.48;;;;;;;16.34;47.93;100210.38;8337196;28;20467;-64
2022/04/19 18:48:16;;;;;;;5.25;1.30;;;;;;;16.25;47.89;100214.25;8335705;28;20049;-64
2022/04/19 18:52:16;;;;;;;2.63;0.93;;;;;;;16.09;48.10;100223.41;8331483;28;20080;-64
2022/04/19 18:56:16;;;;;;;2.97;1.17;;;;;;;16.01;47.55;100228.09;8338458;28;20042;-64
2022/04/19 19:00:18;;;;;;;1.33;0.80;;;;;;;15.97;47.58;100248.53;8341805;28;20036;-64
2022/04/19 19:04:18;;;;;;;2.05;0.90;;;;;;;15.93;47.33;100249.94;8343952;28;20279;-64
2022/04/19 19:08:18;;;;;;;6.03;1.02;;;;;;;15.82;47.51;100244.94;8343166;28;20044;-64
2022/04/19 19:12:19;;;;;;;2.75;1.00;;;;;;;15.80;47.31;100258.75;8338952;28;20045;-64
2022/04/19 19:16:19;;;;;;;6.63;0.90;;;;;;;15.74;47.00;100271.19;8342002;28;20043;-64
2022/04/19 19:20:21;;;;;;;3.93;1.10;;;;;;;15.70;47.35;100275.31;8342637;28;20124;-63
2022/04/19 19:24:21;;;;;;;5.38;1.55;;;;;;;15.43;48.21;100277.66;8358807;28;20310;-64
2022/04/19 19:28:22;;;;;;;2.55;1.70;;;;;;;15.40;47.74;100278.06;8340297;28;20052;-64
2022/04/19 19:32:22;;;;;;;3.40;1.67;;;;;;;15.46;47.66;100283.63;8338984;28;21282;-64